Time;durP1;ratioP1;P1;durP2;ratioP2;P2;SDS_P1;SDS_P2;PMS_P1;PMS_P2;Temp;Humidity;BMP_temperature;BMP_pressure;BME280_temperature;BME280_humidity;BME280_pressure;Samples;Min_cycle;Max_cycle;Signal;HPM_P1;HPM_P2
2024/04/22 00:01:53;;;;;;;4.13;3.70;;;;;;;4.35;100.00;99510.81;6588231;21;20228;-80
2024/04/22 00:04:21;;;;;;;4.33;3.93;;;;;;;4.37;100.00;99510.66;6587667;21;20220;-83
2024/04/22 00:06:49;;;;;;;4.30;3.90;;;;;;;4.26;100.00;99506.63;6630074;21;20284;-80
2024/04/22 00:09:17;;;;;;;4.10;3.70;;;;;;;4.21;100.00;99513.47;6586809;21;20228;-82
2024/04/22 00:11:46;;;;;;;4.63;4.23;;;;;;;4.16;100.00;99507.88;6630622;21;20240;-80
2024/04/22 00:14:14;;;;;;;4.33;3.93;;;;;;;4.17;100.00;99506.88;6544190;21;20235;-81
2024/04/22 00:16:41;;;;;;;4.63;4.10;;;;;;;4.26;100.00;99509.28;6630811;21;20228;-80
2024/04/22 00:19:09;;;;;;;4.60;4.20;;;;;;;4.21;100.00;99514.28;6585974;21;20681;-80
2024/04/22 00:21:37;;;;;;;4.50;4.10;;;;;;;4.23;100.00;99506.16;6587258;21;20224;-79
2024/04/22 00:24:07;;;;;;;4.60;4.20;;;;;;;4.28;100.00;99504.63;6544149;21;20318;-80
2024/04/22 00:26:35;;;;;;;4.80;4.07;;;;;;;4.23;100.00;99511.47;6543828;21;20739;-81
2024/04/22 00:29:03;;;;;;;4.73;4.33;;;;;;;4.22;100.00;99505.34;6586668;21;20236;-80
2024/04/22 00:31:30;;;;;;;4.87;4.37;;;;;;;4.18;100.00;99509.38;6586482;21;20474;-80
2024/04/22 00:33:58;;;;;;;5.10;4.60;;;;;;;4.23;100.00;99507.00;6586829;21;20231;-81
2024/04/22 00:36:26;;;;;;;5.30;4.80;;;;;;;4.16;100.00;99513.19;6586315;21;20228;-81
2024/04/22 00:38:54;;;;;;;4.93;4.43;;;;;;;4.11;100.00;99513.72;6586125;21;20260;-80
2024/04/22 00:41:27;;;;;;;5.13;4.60;;;;;;;4.14;100.00;99513.38;6630976;21;20272;-79
2024/04/22 00:43:57;;;;;;;5.50;4.57;;;;;;;4.11;100.00;99505.78;6631175;21;20216;-80
2024/04/22 00:46:28;;;;;;;4.87;4.47;;;;;;;4.11;100.00;99512.91;6631363;21;20247;-80
2024/04/22 00:48:56;;;;;;;5.67;5.03;;;;;;;4.13;100.00;99513.56;6630922;21;20333;-80
2024/04/22 00:51:24;;;;;;;5.13;4.70;;;;;;;4.20;100.00;99509.19;6544231;21;20239;-83
2024/04/22 00:53:54;;;;;;;5.10;4.60;;;;;;;4.20;100.00;99515.28;6631210;21;20317;-79
2024/04/22 00:56:28;;;;;;;5.87;4.90;;;;;;;4.19;100.00;99508.38;6632413;21;20224;-81
2024/04/22 00:58:58;;;;;;;5.30;4.80;;;;;;;4.15;100.00;99511.56;6546617;21;20943;-80
2024/04/22 01:01:27;;;;;;;5.10;4.60;;;;;;;4.17;100.00;99509.53;6586692;21;20236;-80
2024/04/22 01:03:55;;;;;;;5.70;5.20;;;;;;;4.16;100.00;99513.19;6630492;21;20220;-81
2024/04/22 01:06:22;;;;;;;5.20;4.70;;;;;;;4.12;100.00;99515.38;6586469;21;20276;-79
2024/04/22 01:08:51;;;;;;;5.33;4.73;;;;;;;4.11;100.00;99512.91;6543957;21;20446;-80
2024/04/22 01:11:22;;;;;;;5.07;4.30;;;;;;;4.13;100.00;99502.94;6587487;21;20243;-81
2024/04/22 01:13:49;;;;;;;5.33;4.83;;;;;;;4.09;100.00;99509.63;6587577;21;20232;-81
2024/04/22 01:16:19;;;;;;;5.63;4.93;;;;;;;4.01;100.00;99512.38;6544127;21;20270;-80
2024/04/22 01:18:48;;;;;;;5.17;4.67;;;;;;;3.99;100.00;99510.72;6544579;21;20236;-79
2024/04/22 01:21:15;;;;;;;5.30;4.80;;;;;;;3.94;100.00;99514.91;6586651;21;20232;-81
2024/04/22 01:23:43;;;;;;;6.27;4.67;;;;;;;3.94;100.00;99518.38;6587347;21;20240;-79
2024/04/22 01:26:11;;;;;;;6.47;4.87;;;;;;;3.95;100.00;99511.25;6630777;21;20275;-79
2024/04/22 01:28:39;;;;;;;6.17;4.87;;;;;;;3.88;100.00;99511.13;6587095;21;20232;-80
2024/04/22 01:31:07;;;;;;;5.43;4.93;;;;;;;3.98;100.00;99513.53;6586715;21;20248;-80
2024/04/22 01:33:35;;;;;;;5.00;4.50;;;;;;;3.87;100.00;99498.09;6587035;21;20220;-82
2024/04/22 01:36:03;;;;;;;5.67;4.73;;;;;;;3.86;100.00;99522.94;6630381;21;20232;-79
2024/04/22 01:38:33;;;;;;;5.30;4.80;;;;;;;3.76;100.00;99509.94;6586908;21;20677;-80
2024/04/22 01:41:01;;;;;;;5.50;4.73;;;;;;;3.74;100.00;99513.75;6629816;21;20273;-81
2024/04/22 01:43:28;;;;;;;5.20;4.80;;;;;;;3.76;100.00;99509.94;6586530;21;20236;-80
2024/04/22 01:45:56;;;;;;;6.03;4.87;;;;;;;3.71;100.00;99508.81;6543842;21;20782;-82
2024/04/22 01:48:24;;;;;;;5.60;5.10;;;;;;;3.73;100.00;99505.00;6586445;21;20244;-82
2024/04/22 01:50:52;;;;;;;5.37;4.87;;;;;;;3.71;100.00;99506.16;6543682;21;20259;-79
2024/04/22 01:53:21;;;;;;;5.77;5.27;;;;;;;3.84;100.00;99501.91;6586647;21;20232;-79
2024/04/22 01:55:49;;;;;;;5.97;5.37;;;;;;;3.76;100.00;99501.16;6587343;21;20228;-80
2024/04/22 01:58:17;;;;;;;5.70;5.10;;;;;;;3.71;100.00;99499.03;6587418;21;20282;-79
2024/04/22 02:00:45;;;;;;;5.80;5.20;;;;;;;3.73;100.00;99502.34;6586736;21;20285;-81
2024/04/22 02:03:13;;;;;;;5.53;5.03;;;;;;;3.66;100.00;99500.56;6630204;21;20232;-81
2024/04/22 02:05:44;;;;;;;5.27;4.83;;;;;;;3.69;100.00;99501.03;6543938;21;20263;-81
2024/04/22 02:08:12;;;;;;;5.33;4.83;;;;;;;3.70;100.00;99500.03;6587794;21;20228;-81
2024/04/22 02:10:40;;;;;;;5.60;5.10;;;;;;;3.68;100.00;99507.34;6586529;21;20240;-80
2024/04/22 02:13:08;;;;;;;5.47;4.97;;;;;;;3.64;100.00;99502.59;6588729;21;20254;-79
2024/04/22 02:15:36;;;;;;;5.27;4.67;;;;;;;3.59;100.00;99489.88;6589615;21;20548;-80
2024/04/22 02:18:05;;;;;;;5.50;5.00;;;;;;;3.57;100.00;99499.00;6633391;21;20254;-80
2024/04/22 02:20:33;;;;;;;5.40;4.90;;;;;;;3.55;100.00;99497.34;6588626;21;20258;-80
2024/04/22 02:23:01;;;;;;;6.20;5.20;;;;;;;3.63;100.00;99495.63;6546792;21;20227;-81
2024/04/22 02:25:29;;;;;;;6.00;5.23;;;;;;;3.62;100.00;99486.88;6590801;21;20227;-81
2024/04/22 02:27:57;;;;;;;5.80;5.20;;;;;;;3.70;100.00;99493.91;6590873;21;20366;-81
2024/04/22 02:30:28;;;;;;;5.63;5.00;;;;;;;3.52;100.00;99484.47;6547782;21;20236;-81
2024/04/22 02:32:56;;;;;;;5.70;5.20;;;;;;;3.47;100.00;99492.13;6547703;21;20283;-81
2024/04/22 02:35:26;;;;;;;6.07;5.47;;;;;;;3.49;100.00;99492.78;6548691;21;20250;-81
2024/04/22 02:37:54;;;;;;;6.50;5.33;;;;;;;3.47;100.00;99489.47;6590408;21;20224;-79
2024/04/22 02:40:22;;;;;;;6.33;5.50;;;;;;;3.41;100.00;99506.06;6590536;21;20309;-80
2024/04/22 02:42:49;;;;;;;6.23;5.50;;;;;;;3.44;100.00;99500.41;6634139;21;20216;-81
2024/04/22 02:45:17;;;;;;;6.10;5.50;;;;;;;3.37;100.00;99501.28;6634230;21;20263;-80
2024/04/22 02:47:44;;;;;;;6.23;5.40;;;;;;;3.45;100.00;99498.59;6547323;21;20301;-81
2024/04/22 02:50:12;;;;;;;5.57;5.07;;;;;;;3.41;100.00;99499.94;6590338;21;20232;-80
2024/04/22 02:52:40;;;;;;;6.40;5.20;;;;;;;3.38;100.00;99505.59;6590318;21;20232;-80
2024/04/22 02:55:09;;;;;;;5.80;5.00;;;;;;;3.31;100.00;99502.81;6547429;21;20306;-80
2024/04/22 02:57:37;;;;;;;6.43;5.67;;;;;;;3.44;100.00;99503.06;6547064;21;20228;-83
2024/04/22 03:00:05;;;;;;;5.77;5.27;;;;;;;3.39;100.00;99505.41;6590808;21;20284;-80
2024/04/22 03:02:35;;;;;;;5.40;4.90;;;;;;;3.37;100.00;99510.06;6591287;21;20252;-80
2024/04/22 03:05:04;;;;;;;6.20;5.60;;;;;;;3.36;100.00;99510.25;6590756;21;20262;-81
2024/04/22 03:07:32;;;;;;;5.90;5.33;;;;;;;3.34;100.00;99507.78;6634751;21;20264;-80
2024/04/22 03:10:00;;;;;;;6.63;5.43;;;;;;;3.37;100.00;99503.94;6590844;21;20220;-81
2024/04/22 03:12:29;;;;;;;5.90;5.40;;;;;;;3.34;100.00;99518.38;6590065;21;20317;-83
2024/04/22 03:14:57;;;;;;;6.43;5.73;;;;;;;3.29;100.00;99514.59;6590942;21;20224;-80
2024/04/22 03:17:25;;;;;;;6.63;5.27;;;;;;;3.36;100.00;99515.56;6591565;21;20262;-80
2024/04/22 03:19:53;;;;;;;5.90;5.40;;;;;;;3.31;100.00;99509.97;6634023;21;20220;-80
2024/04/22 03:22:21;;;;;;;7.83;5.97;;;;;;;3.33;100.00;99515.88;6546022;21;20223;-82
2024/04/22 03:24:49;;;;;;;6.30;5.70;;;;;;;3.28;100.00;99512.94;6632425;21;20228;-82
2024/04/22 03:27:18;;;;;;;6.63;5.87;;;;;;;3.39;100.00;99512.53;6588149;21;20329;-80
2024/04/22 03:29:45;;;;;;;6.30;5.70;;;;;;;3.37;100.00;99514.53;6588693;21;20681;-83
2024/04/22 03:32:14;;;;;;;9.13;5.80;;;;;;;3.38;100.00;99518.81;6545121;21;20248;-80
2024/04/22 03:34:42;;;;;;;5.80;5.20;;;;;;;3.38;100.00;99519.66;6545923;21;20287;-80
2024/04/22 03:37:09;;;;;;;6.63;5.50;;;;;;;3.34;100.00;99528.97;6588311;21;20240;-83
2024/04/22 03:39:37;;;;;;;6.23;5.60;;;;;;;3.45;100.00;99517.94;6544560;21;20228;-80
2024/04/22 03:42:05;;;;;;;5.60;4.97;;;;;;;3.38;100.00;99522.31;6588220;21;20223;-80
2024/04/22 03:44:33;;;;;;;5.77;5.20;;;;;;;3.38;100.00;99519.66;6544936;21;20681;-81
2024/04/22 03:49:56;;;;;;;6.67;5.70;;;;;;;3.36;100.00;99523.50;6595139;21;20224;-80
2024/04/22 03:52:24;;;;;;;6.63;5.87;;;;;;;3.30;100.00;99517.06;6591238;21;20224;-82
2024/04/22 03:54:51;;;;;;;5.87;5.27;;;;;;;3.38;100.00;99517.00;6588150;21;20305;-82
2024/04/22 03:57:23;;;;;;;6.17;5.53;;;;;;;3.35;100.00;99522.66;6589116;21;20255;-82
2024/04/22 03:59:55;;;;;;;7.50;5.97;;;;;;;3.43;100.00;99522.59;6548536;21;20280;-81
2024/04/22 04:02:23;;;;;;;5.87;5.27;;;;;;;3.44;100.00;99524.25;6588273;21;20236;-80
2024/04/22 04:04:51;;;;;;;6.30;5.70;;;;;;;3.42;100.00;99522.78;6587944;21;20263;-82
2024/04/22 04:07:19;;;;;;;5.67;5.17;;;;;;;3.46;100.00;99529.34;6544899;21;20286;-81
2024/04/22 04:09:47;;;;;;;5.80;5.30;;;;;;;3.47;100.00;99525.72;6587786;21;20351;-81
2024/04/22 04:12:15;;;;;;;6.37;5.77;;;;;;;3.52;100.00;99521.53;6544403;21;20263;-80
2024/04/22 04:14:42;;;;;;;6.23;5.57;;;;;;;3.53;100.00;99527.66;6631495;21;20265;-80
2024/04/22 04:17:10;;;;;;;5.93;5.10;;;;;;;3.57;100.00;99528.13;6632406;21;20232;-80
2024/04/22 04:19:38;;;;;;;5.80;5.17;;;;;;;3.59;100.00;99523.50;6587831;21;20224;-79
2024/04/22 04:22:06;;;;;;;6.13;5.53;;;;;;;3.55;100.00;99528.28;6588052;21;20243;-80
2024/04/22 04:24:34;;;;;;;5.57;5.07;;;;;;;3.54;100.00;99527.50;6544886;21;20238;-80
2024/04/22 04:27:02;;;;;;;6.17;5.60;;;;;;;3.53;100.00;99525.84;6631990;21;20235;-82
2024/04/22 04:29:30;;;;;;;5.77;5.17;;;;;;;3.51;100.00;99527.00;6587036;21;20240;-81
2024/04/22 04:31:57;;;;;;;5.93;5.43;;;;;;;3.56;100.00;99522.00;6586983;21;20248;-82
2024/04/22 04:34:26;;;;;;;6.03;5.43;;;;;;;3.61;100.00;99532.91;6587301;21;20216;-81
2024/04/22 04:36:53;;;;;;;5.90;5.40;;;;;;;3.70;100.00;99526.53;6587008;21;20258;-80
2024/04/22 04:39:20;;;;;;;6.80;5.57;;;;;;;3.72;100.00;99539.63;6586183;21;20231;-80
2024/04/22 04:41:48;;;;;;;5.53;5.03;;;;;;;3.69;100.00;99535.47;6630123;21;20224;-83
2024/04/22 04:44:16;;;;;;;6.30;5.70;;;;;;;3.77;100.00;99540.72;6586803;21;20224;-80
2024/04/22 04:46:44;;;;;;;6.20;5.60;;;;;;;3.79;100.00;99543.19;6586463;21;20259;-80
2024/04/22 04:49:12;;;;;;;6.20;5.60;;;;;;;3.86;100.00;99544.13;6630050;21;20232;-80
2024/04/22 04:51:41;;;;;;;5.43;4.93;;;;;;;3.95;100.00;99546.53;6631062;21;20275;-79
2024/04/22 04:54:09;;;;;;;6.33;5.73;;;;;;;3.92;100.00;99549.53;6587383;21;20669;-79
2024/04/22 04:56:36;;;;;;;6.10;5.50;;;;;;;4.02;100.00;99551.09;6630810;21;20275;-80
2024/04/22 04:59:04;;;;;;;7.73;5.33;;;;;;;4.13;100.00;99553.34;6586769;21;20669;-80
2024/04/22 05:01:31;;;;;;;5.93;5.30;;;;;;;4.11;100.00;99550.84;6587032;21;20312;-81
2024/04/22 05:04:02;;;;;;;6.50;5.60;;;;;;;4.17;100.00;99558.09;6586636;21;20232;-82
2024/04/22 05:06:30;;;;;;;5.80;5.20;;;;;;;4.27;100.00;99556.00;6587299;21;20258;-81
2024/04/22 05:08:58;;;;;;;5.50;5.00;;;;;;;4.30;100.00;99560.13;6586736;21;20240;-80
2024/04/22 05:11:28;;;;;;;5.77;5.27;;;;;;;4.32;100.00;99552.81;6543391;21;20231;-81
2024/04/22 05:13:56;;;;;;;6.10;4.80;;;;;;;4.48;100.00;99555.28;6633075;21;20220;-80
2024/04/22 05:16:23;;;;;;;5.77;5.13;;;;;;;4.51;100.00;99557.59;6587217;21;20224;-81
2024/04/22 05:18:51;;;;;;;6.70;6.07;;;;;;;4.43;100.00;99553.19;6587096;21;20275;-80
2024/04/22 05:21:19;;;;;;;6.60;5.87;;;;;;;4.45;100.00;99547.69;6587219;21;20533;-80
2024/04/22 05:23:50;;;;;;;6.30;5.70;;;;;;;4.68;100.00;99548.44;6543297;21;20681;-82
2024/04/22 05:26:18;;;;;;;7.60;5.70;;;;;;;4.73;100.00;99543.41;6588210;21;20258;-80
2024/04/22 05:28:46;;;;;;;7.97;5.97;;;;;;;4.85;100.00;99547.22;6631063;21;20232;-80
2024/04/22 05:31:14;;;;;;;6.03;5.43;;;;;;;4.90;100.00;99551.97;6630434;21;20270;-81
2024/04/22 05:36:27;;;;;;;6.00;5.37;;;;;;;4.99;100.00;99550.91;6593283;21;20232;-81
2024/04/22 05:38:57;;;;;;;6.13;5.53;;;;;;;5.07;100.00;99552.59;6586683;21;20258;-80
2024/04/22 05:41:25;;;;;;;5.70;5.20;;;;;;;5.10;100.00;99558.38;6586177;21;20669;-80
2024/04/22 05:43:52;;;;;;;5.73;5.23;;;;;;;5.16;100.00;99556.81;6586165;21;20263;-79
2024/04/22 05:46:22;;;;;;;6.37;5.23;;;;;;;5.42;100.00;99564.22;6633483;21;20236;-82
2024/04/22 05:48:49;;;;;;;7.53;5.50;;;;;;;5.54;100.00;99558.25;6544793;21;20328;-80
2024/04/22 05:51:17;;;;;;;6.10;5.50;;;;;;;5.46;100.00;99563.66;6633683;21;20224;-79
2024/04/22 05:53:45;;;;;;;6.43;5.83;;;;;;;5.47;100.00;99573.28;6588504;21;20239;-80
2024/04/22 05:56:13;;;;;;;6.00;5.40;;;;;;;5.69;100.00;99563.53;6587550;21;20313;-80
2024/04/22 05:58:41;;;;;;;6.37;5.77;;;;;;;5.80;100.00;99570.97;6586712;21;20227;-79
2024/04/22 06:01:09;;;;;;;7.00;5.70;;;;;;;5.86;100.00;99566.72;6586289;21;20259;-82
2024/04/22 06:03:36;;;;;;;5.70;5.10;;;;;;;5.93;100.00;99572.94;6584601;21;20266;-80
2024/04/22 06:06:05;;;;;;;6.27;5.60;;;;;;;5.98;100.00;99576.69;6629967;21;20224;-79
2024/04/22 06:08:33;;;;;;;6.70;5.70;;;;;;;6.16;100.00;99570.91;6630913;21;20240;-81
2024/04/22 06:11:00;;;;;;;6.33;5.70;;;;;;;5.80;100.00;99589.56;6585826;21;20228;-79
2024/04/22 06:13:28;;;;;;;6.67;5.70;;;;;;;5.71;100.00;99586.22;6586798;21;20220;-80
2024/04/22 06:15:57;;;;;;;6.40;5.80;;;;;;;5.91;100.00;99578.47;6630939;21;20278;-79
2024/04/22 06:18:24;;;;;;;6.33;5.70;;;;;;;6.00;100.00;99585.31;6630469;21;20228;-81
2024/04/22 06:20:52;;;;;;;6.40;5.80;;;;;;;6.08;100.00;99587.81;6629855;21;20325;-79
2024/04/22 06:23:19;;;;;;;6.20;5.60;;;;;;;6.21;100.00;99584.44;6628608;21;20347;-79
2024/04/22 06:25:50;;;;;;;6.20;5.60;;;;;;;6.39;100.00;99589.31;6629700;21;20232;-79
2024/04/22 06:28:18;;;;;;;6.57;5.97;;;;;;;6.53;100.00;99591.06;6630986;21;20236;-81
2024/04/22 06:30:47;;;;;;;6.07;5.50;;;;;;;6.54;100.00;99592.69;6586606;21;20296;-81
2024/04/22 06:33:14;;;;;;;5.87;5.27;;;;;;;6.48;100.00;99588.97;6543807;21;20258;-81
2024/04/22 06:35:42;;;;;;;7.03;5.97;;;;;;;6.80;100.00;99600.84;6586646;21;20224;-79
2024/04/22 06:38:10;;;;;;;5.80;5.20;;;;;;;6.89;100.00;99604.19;6630265;21;20770;-79
2024/04/22 06:40:37;;;;;;;6.17;5.43;;;;;;;6.74;100.00;99598.13;6630403;21;20688;-79
2024/04/22 06:43:05;;;;;;;6.43;5.77;;;;;;;7.01;100.00;99605.25;6631742;21;20296;-78
2024/04/22 06:45:33;;;;;;;6.60;6.00;;;;;;;7.12;100.00;99599.38;6631072;21;20236;-82
2024/04/22 06:48:00;;;;;;;7.43;5.83;;;;;;;6.94;100.00;99604.41;6630596;21;20224;-80
2024/04/22 06:50:28;;;;;;;5.87;5.30;;;;;;;6.93;100.00;99605.41;6586831;21;20244;-79
2024/04/22 06:52:55;;;;;;;6.43;5.80;;;;;;;7.11;100.00;99599.56;6630962;21;20229;-81
2024/04/22 06:55:23;;;;;;;6.47;5.87;;;;;;;7.30;100.00;99598.84;6587184;21;20270;-82
2024/04/22 06:57:52;;;;;;;6.30;5.77;;;;;;;7.32;100.00;99602.97;6629585;21;20274;-79
2024/04/22 07:00:23;;;;;;;6.67;5.57;;;;;;;7.33;100.00;99609.91;6630116;21;20269;-79
2024/04/22 07:02:51;;;;;;;6.23;5.63;;;;;;;7.44;100.00;99609.34;6544281;21;20259;-79
2024/04/22 07:05:19;;;;;;;6.17;5.57;;;;;;;7.48;100.00;99601.75;6586525;21;20240;-79
2024/04/22 07:07:51;;;;;;;6.30;5.70;;;;;;;7.71;100.00;99599.56;6589811;21;20232;-79
2024/04/22 07:10:19;;;;;;;6.83;6.13;;;;;;;7.85;100.00;99608.41;6630350;21;20827;-80
2024/04/22 07:12:47;;;;;;;6.77;5.97;;;;;;;8.16;100.00;99607.88;6631952;21;20226;-80
2024/04/22 07:15:15;;;;;;;6.37;5.77;;;;;;;8.33;100.00;99615.28;6586577;21;20227;-79
2024/04/22 07:17:45;;;;;;;6.50;5.87;;;;;;;8.29;100.00;99610.53;6587609;21;20301;-79
2024/04/22 07:20:14;;;;;;;6.63;6.00;;;;;;;8.55;100.00;99621.22;6630220;21;20227;-79
2024/04/22 07:22:44;;;;;;;6.33;5.73;;;;;;;7.96;100.00;99614.00;6587282;21;20347;-80
2024/04/22 07:25:11;;;;;;;7.47;6.43;;;;;;;7.91;100.00;99615.63;6630936;21;20223;-79
2024/04/22 07:27:39;;;;;;;6.33;5.73;;;;;;;8.22;100.00;99620.38;6543017;21;20236;-80
2024/04/22 07:30:09;;;;;;;6.43;5.87;;;;;;;8.55;100.00;99621.22;6632408;21;20784;-82
2024/04/22 07:32:37;;;;;;;6.90;6.20;;;;;;;8.35;100.00;99629.22;6629780;21;20240;-80
2024/04/22 07:35:10;;;;;;;7.27;6.27;;;;;;;8.41;100.00;99630.28;6585480;21;20232;-81
2024/04/22 07:37:43;;;;;;;7.27;6.57;;;;;;;8.79;100.00;99619.75;6585871;21;20549;-79
2024/04/22 07:40:17;;;;;;;6.87;6.20;;;;;;;9.33;100.00;99626.63;6629093;21;20231;-79
2024/04/22 07:42:46;;;;;;;6.70;6.10;;;;;;;9.12;100.00;99628.53;6630711;21;20235;-80
2024/04/22 07:45:16;;;;;;;7.90;6.20;;;;;;;9.12;100.00;99622.34;6586330;21;20224;-80
2024/04/22 07:47:48;;;;;;;6.57;5.97;;;;;;;8.79;100.00;99625.94;6585827;21;20310;-80
2024/04/22 07:50:15;;;;;;;6.27;5.67;;;;;;;9.47;100.00;99636.22;6542008;21;20251;-79
2024/04/22 07:52:42;;;;;;;10.80;9.10;;;;;;;9.39;100.00;99633.78;6542157;21;20228;-80
2024/04/22 07:55:13;;;;;;;12.73;8.87;;;;;;;8.67;100.00;99642.81;6586818;21;20262;-80
2024/04/22 07:57:41;;;;;;;9.10;7.33;;;;;;;8.23;100.00;99628.19;6629769;21;20677;-80
2024/04/22 08:00:11;;;;;;;9.47;8.13;;;;;;;8.02;100.00;99625.72;6624563;21;20224;-79
2024/04/22 08:02:39;;;;;;;25.97;14.10;;;;;;;8.04;100.00;99625.50;6629058;21;20284;-80
2024/04/22 08:05:11;;;;;;;13.10;8.10;;;;;;;8.41;100.00;99640.94;6631335;21;20224;-79
2024/04/22 08:07:39;;;;;;;7.40;6.67;;;;;;;8.67;100.00;99635.63;6585662;21;20317;-79
2024/04/22 08:10:07;;;;;;;9.00;8.10;;;;;;;8.66;100.00;99638.47;6626841;21;20224;-80
2024/04/22 08:12:36;;;;;;;10.97;9.77;;;;;;;8.86;100.00;99644.63;6628522;21;20224;-80
2024/04/22 08:15:05;;;;;;;7.73;6.50;;;;;;;9.39;100.00;99650.66;6585586;21;20228;-80
2024/04/22 08:17:35;;;;;;;7.50;6.80;;;;;;;9.29;100.00;99652.94;6584494;21;20240;-80
2024/04/22 08:20:02;;;;;;;7.37;6.67;;;;;;;9.25;100.00;99646.38;6585152;21;20279;-79
2024/04/22 08:22:31;;;;;;;7.17;6.37;;;;;;;9.25;100.00;99646.38;6629137;21;20266;-79
2024/04/22 08:25:03;;;;;;;7.53;6.83;;;;;;;9.35;100.00;99646.75;6631016;21;20697;-80
2024/04/22 08:27:30;;;;;;;6.87;6.20;;;;;;;9.14;100.00;99644.38;6628311;21;20228;-80
2024/04/22 08:29:58;;;;;;;7.37;6.67;;;;;;;9.39;100.00;99650.66;6628137;21;20236;-80
2024/04/22 08:32:25;;;;;;;8.10;7.27;;;;;;;9.14;100.00;99655.06;6540394;21;20283;-80
2024/04/22 08:34:54;;;;;;;7.80;7.00;;;;;;;9.50;100.00;99651.84;6627353;21;21012;-80
2024/04/22 08:37:21;;;;;;;7.80;7.00;;;;;;;9.21;100.00;99655.84;6579226;21;20231;-80
2024/04/22 08:39:48;;;;;;;7.67;6.93;;;;;;;9.42;100.00;99654.75;6578870;21;20325;-80
2024/04/22 08:42:18;;;;;;;8.23;6.90;;;;;;;9.17;100.00;99660.81;6629057;21;20224;-80
2024/04/22 08:44:45;;;;;;;8.13;6.80;;;;;;;9.47;100.00;99666.44;6585166;21;20228;-82
2024/04/22 08:47:12;;;;;;;7.80;7.00;;;;;;;9.24;100.00;99669.59;6631122;21;20227;-79
2024/04/22 08:49:39;;;;;;;7.37;6.67;;;;;;;9.70;100.00;99671.31;6584315;21;20248;-81
2024/04/22 08:52:06;;;;;;;7.67;6.93;;;;;;;9.66;100.00;99670.91;6627778;21;20299;-80
2024/04/22 08:54:35;;;;;;;7.83;7.13;;;;;;;9.13;100.00;99675.63;6583771;21;20794;-80
2024/04/22 08:57:04;;;;;;;7.83;7.13;;;;;;;9.60;100.00;99671.78;6584064;21;20231;-79
2024/04/22 08:59:31;;;;;;;7.90;7.10;;;;;;;10.18;100.00;99666.31;6582647;21;20314;-82
2024/04/22 09:02:07;;;;;;;7.70;7.00;;;;;;;9.85;100.00;99677.19;6585592;21;20234;-79
2024/04/22 09:04:35;;;;;;;9.20;8.37;;;;;;;9.49;100.00;99666.25;6583381;21;20274;-79
2024/04/22 09:07:07;;;;;;;7.70;7.07;;;;;;;9.53;100.00;99656.75;6583504;21;20267;-79
2024/04/22 09:09:35;;;;;;;7.30;6.60;;;;;;;9.45;100.00;99660.50;6585241;21;20697;-79
2024/04/22 09:12:23;;;;;;;8.53;7.40;;;;;;;8.23;100.00;99664.72;6628474;21;20220;-81
2024/04/22 09:14:59;;;;;;;7.77;7.07;;;;;;;8.58;100.00;99654.72;6583854;21;20246;-81
2024/04/22 09:17:27;;;;;;;8.10;7.40;;;;;;;9.26;100.00;99658.72;6585265;21;20266;-80
2024/04/22 09:19:55;;;;;;;8.10;7.30;;;;;;;9.17;100.00;99654.63;6540466;21;20713;-80
2024/04/22 09:22:23;;;;;;;8.17;7.47;;;;;;;9.23;100.00;99651.13;6627476;21;20224;-80
2024/04/22 09:24:51;;;;;;;9.60;8.60;;;;;;;9.70;100.00;99655.25;6624714;21;20270;-82
2024/04/22 09:27:20;;;;;;;11.27;10.27;;;;;;;10.00;100.00;99648.28;6579504;21;20247;-80
2024/04/22 09:29:47;;;;;;;12.33;11.13;;;;;;;10.22;100.00;99643.44;6538961;21;20268;-80
2024/04/22 09:32:16;;;;;;;8.80;8.00;;;;;;;10.46;100.00;99641.81;6627008;21;20236;-80
2024/04/22 09:34:45;;;;;;;7.90;7.30;;;;;;;10.36;100.00;99647.66;6624350;21;20220;-79
2024/04/22 09:37:13;;;;;;;10.40;9.50;;;;;;;9.80;100.00;99644.91;6627271;21;20228;-79
2024/04/22 09:39:40;;;;;;;8.60;7.80;;;;;;;10.71;100.00;99658.72;6582634;21;20257;-80
2024/04/22 09:42:09;;;;;;;8.27;7.57;;;;;;;11.07;100.00;99647.22;6580367;21;20235;-80
2024/04/22 09:44:40;;;;;;;9.30;8.47;;;;;;;10.94;100.00;99642.00;6626792;21;20263;-82
2024/04/22 09:47:09;;;;;;;8.67;7.83;;;;;;;11.30;100.00;99636.66;6540317;21;20227;-80
2024/04/22 09:49:38;;;;;;;9.13;8.27;;;;;;;11.36;100.00;99638.44;6625659;21;20701;-80
2024/04/22 09:52:07;;;;;;;8.67;7.87;;;;;;;11.32;100.00;99637.28;6582545;21;20790;-80
2024/04/22 09:54:35;;;;;;;10.07;8.33;;;;;;;11.76;100.00;99638.78;6583348;21;20223;-81
2024/04/22 09:57:06;;;;;;;8.40;7.67;;;;;;;12.12;100.00;99645.13;6541436;21;20228;-81
2024/04/22 09:59:35;;;;;;;7.37;6.67;;;;;;;11.94;100.00;99647.88;6583509;21;20254;-80
2024/04/22 10:02:04;;;;;;;8.17;7.40;;;;;;;11.46;100.00;99652.16;6582583;21;20336;-79
2024/04/22 10:04:32;;;;;;;8.43;7.73;;;;;;;11.37;100.00;99647.31;6580332;21;20303;-80
2024/04/22 10:07:01;;;;;;;8.93;8.03;;;;;;;11.03;100.00;99638.81;6581026;21;20220;-80
2024/04/22 10:09:30;;;;;;;8.90;8.10;;;;;;;10.93;100.00;99645.72;6539871;21;20266;-81
2024/04/22 10:12:06;;;;;;;9.13;8.33;;;;;;;10.97;100.00;99657.63;6583112;21;20340;-81
2024/04/22 10:14:35;;;;;;;8.43;7.73;;;;;;;10.87;100.00;99643.94;6583979;21;20224;-80
2024/04/22 10:17:03;;;;;;;8.50;7.70;;;;;;;11.00;100.00;99652.69;6626216;21;20224;-82
2024/04/22 10:19:33;;;;;;;8.43;7.73;;;;;;;10.75;100.00;99651.06;6580526;21;20220;-81
2024/04/22 10:22:08;;;;;;;8.67;7.83;;;;;;;11.15;100.00;99651.50;6539696;21;20761;-81
2024/04/22 10:24:38;;;;;;;9.33;8.53;;;;;;;11.40;100.00;99645.00;6625645;21;20825;-80
2024/04/22 10:27:10;;;;;;;8.90;8.10;;;;;;;11.65;100.00;99646.78;6625358;21;20232;-80
2024/04/22 10:29:42;;;;;;;8.07;7.33;;;;;;;11.33;100.00;99644.28;6583993;21;20262;-80
2024/04/22 10:32:11;;;;;;;8.40;7.70;;;;;;;11.29;100.00;99632.31;6583390;21;20244;-80
2024/04/22 10:34:43;;;;;;;8.33;7.53;;;;;;;11.27;100.00;99636.28;6585025;21;20232;-79
2024/04/22 10:37:13;;;;;;;8.80;8.03;;;;;;;11.10;100.00;99643.31;6629348;21;20268;-80
2024/04/22 10:39:43;;;;;;;8.70;7.90;;;;;;;10.67;100.00;99656.69;6542096;21;20232;-80
2024/04/22 10:42:12;;;;;;;8.33;7.57;;;;;;;10.86;100.00;99647.66;6585887;21;20329;-80
2024/04/22 10:44:41;;;;;;;9.23;8.43;;;;;;;10.82;100.00;99647.28;6629233;21;20232;-81
2024/04/22 10:47:10;;;;;;;9.17;8.37;;;;;;;10.96;100.00;99640.72;6584859;21;20220;-80
2024/04/22 10:49:40;;;;;;;8.67;7.87;;;;;;;11.36;100.00;99643.00;6585120;21;20236;-79
2024/04/22 10:52:09;;;;;;;9.77;8.97;;;;;;;10.80;100.00;99645.84;6584844;21;20232;-81
2024/04/22 10:54:36;;;;;;;9.37;8.57;;;;;;;10.85;100.00;99638.81;6584843;21;20228;-80
2024/04/22 10:57:04;;;;;;;9.57;8.77;;;;;;;10.94;100.00;99647.38;6628155;21;20228;-79
2024/04/22 10:59:32;;;;;;;9.83;8.93;;;;;;;11.03;100.00;99638.81;6584674;21;20244;-79
2024/04/22 11:01:59;;;;;;;9.53;8.73;;;;;;;10.94;100.00;99640.16;6584490;21;20220;-80
2024/04/22 11:04:28;;;;;;;8.93;8.17;;;;;;;11.15;100.00;99640.78;6628611;21;20231;-79
2024/04/22 11:06:56;;;;;;;10.63;9.83;;;;;;;10.71;100.00;99639.13;6541627;21;20232;-82
2024/04/22 11:09:24;;;;;;;9.13;8.33;;;;;;;10.70;100.00;99635.63;6584750;21;20232;-79
2024/04/22 11:11:53;;;;;;;9.10;8.30;;;;;;;11.59;100.00;99637.75;6584740;21;20716;-79
2024/04/22 11:14:23;;;;;;;11.93;10.83;;;;;;;11.88;100.00;99646.91;6583915;21;20231;-79
2024/04/22 11:16:58;;;;;;;9.40;8.60;;;;;;;12.46;100.00;99643.59;6542905;21;20228;-79
2024/04/22 11:19:26;;;;;;;11.40;10.40;;;;;;;12.07;100.00;99636.94;6541244;21;20280;-81
2024/04/22 11:21:54;;;;;;;10.87;9.97;;;;;;;11.91;100.00;99635.72;6582866;21;20480;-82
2024/04/22 11:24:22;;;;;;;9.53;8.73;;;;;;;12.48;100.00;99638.78;6584150;21;21013;-80
2024/04/22 11:26:52;;;;;;;8.33;7.63;;;;;;;12.52;100.00;99635.41;6542786;21;20228;-80
2024/04/22 11:29:20;;;;;;;9.27;8.47;;;;;;;12.68;100.00;99640.09;6583004;21;20250;-80
2024/04/22 11:31:52;;;;;;;8.03;7.30;;;;;;;12.74;100.00;99641.00;6625929;21;20286;-80
2024/04/22 11:34:24;;;;;;;9.07;8.27;;;;;;;12.28;100.00;99636.41;6627357;21;20669;-82
2024/04/22 11:36:57;;;;;;;9.23;8.43;;;;;;;12.30;100.00;99635.13;6626945;21;20255;-80
2024/04/22 11:39:26;;;;;;;9.00;8.20;;;;;;;12.05;100.00;99633.66;6627086;21;20231;-81
2024/04/22 11:41:54;;;;;;;9.07;8.30;;;;;;;12.41;100.00;99621.97;6583512;21;20274;-81
2024/04/22 11:44:23;;;;;;;8.10;7.50;;;;;;;12.41;100.00;99621.97;6583760;21;20232;-81